Terminal Aerodrome Forecast
Issued by NWS Wilmington, OH

Current Version | Previous Version | Text Only | Print | Product List | Glossary Off
Versions: 1 2 3 4 5 6 7 8 9 10 11 12 13 14 15 16 17 18 19 20 21 22

974
FTUS41 KILN 170923 AAA
TAFCMH
TAF AMD
KCMH 170923Z 1709/1806 16010KT 5SM -SHRA OVC050
      TEMPO 1709/1713 3SM -SHRA BR OVC025
     FM171300 18010G18KT 5SM -SHRA BR OVC012
     FM171800 23014KT P6SM OVC012
     FM172000 25014G22KT P6SM OVC025
     FM180000 26011G18KT P6SM OVC015
     FM180300 26010KT P6SM OVC008=

USA.gov is the U.S. government's official web portal to all federal, state and local government web resources and services.